createdAt,value
2024-02-13T00:00:27.753Z,1.83
2024-02-13T00:02:59.734Z,2.20
2024-02-13T00:05:31.664Z,2.03
2024-02-13T00:08:03.703Z,2.17
2024-02-13T00:10:38.084Z,2.37
2024-02-13T00:13:10.003Z,2.20
2024-02-13T00:15:41.872Z,3.00
2024-02-13T00:18:13.820Z,3.07
2024-02-13T00:20:45.919Z,2.80
2024-02-13T00:23:17.900Z,3.30
2024-02-13T00:25:49.724Z,3.30
2024-02-13T00:28:21.577Z,3.13
2024-02-13T00:30:53.459Z,3.83
2024-02-13T00:33:25.447Z,4.23
2024-02-13T00:35:57.467Z,4.70
2024-02-13T00:38:29.577Z,4.10
2024-02-13T00:41:01.528Z,4.13
2024-02-13T00:43:33.868Z,4.63
2024-02-13T00:46:05.778Z,4.70
2024-02-13T00:48:37.683Z,4.40
2024-02-13T00:51:09.640Z,4.67
2024-02-13T00:53:41.647Z,4.50
2024-02-13T00:56:13.651Z,4.60
2024-02-13T00:58:45.585Z,4.33
2024-02-13T01:01:17.472Z,5.10
2024-02-13T01:03:49.472Z,5.27
2024-02-13T01:06:21.565Z,4.80
2024-02-13T01:08:53.562Z,4.90
2024-02-13T01:11:25.608Z,4.87
2024-02-13T01:13:57.426Z,5.27
2024-02-13T01:16:29.466Z,5.80
2024-02-13T01:19:01.491Z,5.33
2024-02-13T01:21:33.627Z,5.57
2024-02-13T01:24:05.466Z,4.67
2024-02-13T01:26:37.406Z,4.77
2024-02-13T01:29:09.416Z,5.07
2024-02-13T01:31:41.274Z,6.03
2024-02-13T01:34:13.179Z,5.53
2024-02-13T01:36:47.379Z,5.30
2024-02-13T01:39:19.224Z,4.40
2024-02-13T01:41:51.186Z,5.47
2024-02-13T01:44:23.222Z,4.87
2024-02-13T01:46:55.097Z,5.10
2024-02-13T01:49:26.967Z,5.63
2024-02-13T01:51:58.908Z,5.37
2024-02-13T01:54:30.761Z,5.40
2024-02-13T01:57:02.674Z,6.30
2024-02-13T01:59:34.551Z,6.27
2024-02-13T02:02:06.667Z,5.53
2024-02-13T02:04:38.536Z,5.40
2024-02-13T02:07:10.395Z,4.97
2024-02-13T02:09:42.228Z,5.30
2024-02-13T02:12:14.072Z,5.80
2024-02-13T02:14:46.026Z,5.50
2024-02-13T02:17:18.013Z,5.73
2024-02-13T02:19:49.888Z,5.13
2024-02-13T02:22:21.752Z,5.77
2024-02-13T02:24:53.618Z,5.33
2024-02-13T02:27:25.576Z,5.47
2024-02-13T02:29:57.460Z,5.50
2024-02-13T02:32:29.424Z,5.00
2024-02-13T02:35:01.465Z,5.97
2024-02-13T02:37:33.287Z,6.20
2024-02-13T02:40:05.135Z,6.43
2024-02-13T02:42:37.015Z,5.10
2024-02-13T02:45:08.843Z,5.40
2024-02-13T02:47:40.741Z,6.30
2024-02-13T02:50:12.610Z,5.83
2024-02-13T02:52:44.566Z,5.23
2024-02-13T02:55:16.556Z,5.50
2024-02-13T02:57:48.435Z,5.67
2024-02-13T03:00:20.267Z,6.33
2024-02-13T03:02:52.458Z,6.00
2024-02-13T03:05:24.609Z,5.93
2024-02-13T03:07:56.588Z,6.27
2024-02-13T03:10:28.441Z,5.90
2024-02-13T03:13:00.279Z,6.37
2024-02-13T03:15:32.143Z,5.87
2024-02-13T03:18:04.055Z,6.13
2024-02-13T03:20:36.084Z,6.53
2024-02-13T03:23:08.006Z,6.60
2024-02-13T03:25:39.894Z,6.17
2024-02-13T03:28:11.738Z,6.10
2024-02-13T03:30:43.599Z,5.97
2024-02-13T03:33:15.700Z,6.00
2024-02-13T03:35:47.738Z,5.63
2024-02-13T03:38:19.730Z,6.07
2024-02-13T03:40:51.599Z,5.63
2024-02-13T03:43:23.553Z,5.73
2024-02-13T03:45:55.433Z,6.27
2024-02-13T03:48:27.618Z,5.13
2024-02-13T03:50:59.753Z,6.13
2024-02-13T03:53:31.707Z,5.47
2024-02-13T03:56:03.718Z,5.20
2024-02-13T03:58:35.782Z,6.53
2024-02-13T04:01:07.662Z,5.67
2024-02-13T04:03:39.795Z,5.53
2024-02-13T04:06:11.769Z,5.13
2024-02-13T04:08:43.719Z,5.37
2024-02-13T04:11:15.726Z,5.73
2024-02-13T04:13:47.832Z,5.37
2024-02-13T04:16:19.731Z,5.17
2024-02-13T04:18:51.701Z,5.60
2024-02-13T04:21:23.786Z,5.70
2024-02-13T04:23:55.828Z,6.03
2024-02-13T04:26:36.295Z,5.57
2024-02-13T04:29:01.585Z,5.50
2024-02-13T04:31:33.552Z,5.13
2024-02-13T04:34:05.991Z,5.83
2024-02-13T04:36:38.086Z,4.93
2024-02-13T04:39:09.980Z,5.53
2024-02-13T04:41:41.908Z,5.50
2024-02-13T04:44:13.904Z,4.70
2024-02-13T04:46:45.934Z,5.30
2024-02-13T04:49:17.901Z,4.93
2024-02-13T04:51:50.039Z,5.03
2024-02-13T04:54:21.930Z,4.73
2024-02-13T04:56:53.881Z,4.60
2024-02-13T04:59:25.953Z,5.10
2024-02-13T05:01:58.074Z,5.40
2024-02-13T05:04:29.987Z,4.77
2024-02-13T05:07:02.027Z,4.73
2024-02-13T05:09:33.925Z,4.87
2024-02-13T05:12:05.827Z,5.53
2024-02-13T05:14:37.785Z,7.07
2024-02-13T05:17:10.046Z,5.27
2024-02-13T05:19:42.080Z,4.97
2024-02-13T05:22:13.961Z,4.83
2024-02-13T05:24:45.852Z,5.10
2024-02-13T05:27:17.697Z,5.10
2024-02-13T05:29:49.783Z,4.97
2024-02-13T05:32:21.990Z,4.90
2024-02-13T05:34:53.851Z,5.10
2024-02-13T05:37:25.696Z,4.70
2024-02-13T05:39:57.575Z,5.47
2024-02-13T05:42:29.436Z,5.63
2024-02-13T05:45:01.528Z,5.30
2024-02-13T05:47:33.668Z,5.27
2024-02-13T05:50:05.597Z,5.90
2024-02-13T05:52:37.449Z,5.97
2024-02-13T05:55:09.337Z,5.67
2024-02-13T05:57:41.220Z,4.47
2024-02-13T06:00:13.258Z,5.30
2024-02-13T06:02:45.648Z,5.43
2024-02-13T06:05:17.772Z,5.30
2024-02-13T06:07:49.608Z,5.47
2024-02-13T06:10:21.533Z,5.40
2024-02-13T06:12:53.424Z,4.73
2024-02-13T06:15:25.313Z,4.93
2024-02-13T06:17:57.250Z,4.70
2024-02-13T06:20:29.270Z,5.30
2024-02-13T06:23:01.252Z,5.17
2024-02-13T06:25:33.156Z,4.53
2024-02-13T06:28:05.006Z,4.70
2024-02-13T06:30:36.885Z,4.90
2024-02-13T06:33:09.006Z,4.93
2024-02-13T06:35:41.153Z,4.73
2024-02-13T06:38:13.129Z,4.43
2024-02-13T06:40:45.015Z,5.23
2024-02-13T06:43:16.899Z,4.90
2024-02-13T06:45:48.810Z,4.60
2024-02-13T06:48:21.307Z,5.10
2024-02-13T06:50:53.335Z,4.60
2024-02-13T06:53:25.399Z,4.77
2024-02-13T06:55:57.530Z,4.33
2024-02-13T06:58:29.525Z,4.57
2024-02-13T07:01:01.471Z,5.43
2024-02-13T07:03:33.570Z,4.50
2024-02-13T07:06:05.830Z,4.57
2024-02-13T07:08:38.051Z,4.07
2024-02-13T07:11:10.098Z,4.67
2024-02-13T07:13:41.919Z,4.93
2024-02-13T07:16:13.879Z,4.10
2024-02-13T07:18:45.915Z,4.43
2024-02-13T07:21:17.983Z,4.53
2024-02-13T07:23:49.930Z,4.20
2024-02-13T07:26:22.016Z,4.20
2024-02-13T07:28:53.909Z,4.63
2024-02-13T07:31:26.002Z,3.43
2024-02-13T07:33:57.995Z,4.10
2024-02-13T07:36:34.770Z,3.97
2024-02-13T07:39:06.688Z,3.67
2024-02-13T07:41:38.619Z,4.10
2024-02-13T07:44:10.646Z,4.07
2024-02-13T07:46:42.485Z,3.40
2024-02-13T07:49:14.356Z,4.73
2024-02-13T07:51:46.434Z,4.10
2024-02-13T07:54:18.312Z,3.97
2024-02-13T07:56:50.338Z,4.73
2024-02-13T07:59:22.501Z,3.60
2024-02-13T08:01:54.372Z,4.33
2024-02-13T08:04:26.303Z,3.10
2024-02-13T08:06:58.386Z,4.03
2024-02-13T08:09:30.284Z,3.23
2024-02-13T08:12:02.185Z,3.67
2024-02-13T08:14:34.277Z,3.00
2024-02-13T08:17:06.248Z,3.20
2024-02-13T08:19:38.246Z,3.83
2024-02-13T08:22:10.416Z,3.00
2024-02-13T08:24:42.774Z,6.17
2024-02-13T08:27:15.789Z,2.77
2024-02-13T08:29:47.717Z,3.10
2024-02-13T08:32:19.766Z,3.13
2024-02-13T08:34:51.822Z,2.80
2024-02-13T08:37:23.795Z,3.30
2024-02-13T08:39:55.782Z,2.60
2024-02-13T08:42:27.728Z,2.40
2024-02-13T08:44:59.724Z,2.93
2024-02-13T08:47:33.337Z,3.20
2024-02-13T08:50:05.584Z,2.63
2024-02-13T08:52:38.132Z,2.20
2024-02-13T08:55:10.275Z,2.57
2024-02-13T08:57:42.296Z,3.00
2024-02-13T09:00:14.373Z,2.23
2024-02-13T09:02:46.437Z,2.17
2024-02-13T09:05:18.440Z,1.97
2024-02-13T09:07:52.840Z,2.40
2024-02-13T09:10:24.712Z,2.23
2024-02-13T09:12:56.684Z,2.00
2024-02-13T09:15:28.819Z,1.93
2024-02-13T09:18:00.760Z,2.70
2024-02-13T09:20:32.787Z,1.97
2024-02-13T09:23:04.729Z,1.90
2024-02-13T09:25:36.620Z,2.27
2024-02-13T09:28:08.481Z,2.10
2024-02-13T09:30:40.337Z,2.20
2024-02-13T09:33:12.299Z,2.30
2024-02-13T09:35:44.250Z,2.00
2024-02-13T09:38:16.103Z,2.43
2024-02-13T09:40:47.997Z,1.90
2024-02-13T09:43:20.221Z,2.40
2024-02-13T09:45:52.177Z,1.63
2024-02-13T09:48:26.569Z,2.33
2024-02-13T09:50:58.922Z,1.93
2024-02-13T09:53:31.602Z,2.23
2024-02-13T09:56:03.650Z,1.97
2024-02-13T09:58:35.563Z,1.70
2024-02-13T10:01:07.445Z,3.53
2024-02-13T10:03:39.274Z,3.03
2024-02-13T10:06:11.319Z,1.93
2024-02-13T10:08:43.885Z,1.33
2024-02-13T10:11:16.105Z,1.90
2024-02-13T10:13:48.605Z,1.90
2024-02-13T10:16:20.786Z,1.83
2024-02-13T10:18:52.996Z,2.07
2024-02-13T10:21:25.197Z,1.70
2024-02-13T10:23:57.158Z,1.80
2024-02-13T10:26:29.177Z,2.07
2024-02-13T10:29:00.958Z,1.80
2024-02-13T10:31:32.842Z,1.80
2024-02-13T10:34:04.686Z,1.80
2024-02-13T10:36:36.824Z,2.03
2024-02-13T10:39:08.746Z,1.60
2024-02-13T10:41:40.673Z,1.90
2024-02-13T10:44:12.640Z,2.47
2024-02-13T10:46:44.529Z,2.00
2024-02-13T10:49:16.391Z,1.90
2024-02-13T10:51:48.223Z,1.97
2024-02-13T10:54:20.114Z,1.60
2024-02-13T10:56:52.078Z,1.50
2024-02-13T10:59:23.982Z,2.00
2024-02-13T11:01:56.174Z,1.33
2024-02-13T11:04:28.492Z,2.13
2024-02-13T11:07:00.615Z,1.13
2024-02-13T11:09:32.573Z,1.70
2024-02-13T11:12:04.504Z,1.60
2024-02-13T11:14:36.416Z,1.67
2024-02-13T11:17:10.333Z,1.50
2024-02-13T11:19:46.007Z,1.40
2024-02-13T11:22:17.059Z,2.30
2024-02-13T11:24:49.425Z,1.80
2024-02-13T11:27:28.116Z,1.20
2024-02-13T11:29:54.872Z,1.60
2024-02-13T11:32:26.996Z,1.57
2024-02-13T11:34:59.060Z,1.50
2024-02-13T11:37:30.966Z,1.50
2024-02-13T11:40:02.966Z,1.40
2024-02-13T11:42:34.949Z,1.57
2024-02-13T11:45:07.349Z,1.40
2024-02-13T11:47:39.585Z,1.63
2024-02-13T11:50:11.680Z,2.10
2024-02-13T11:52:43.670Z,1.40
2024-02-13T11:55:15.637Z,1.53
2024-02-13T11:57:47.629Z,1.50
2024-02-13T12:00:20.804Z,1.20
2024-02-13T12:02:53.284Z,1.40
2024-02-13T12:05:25.227Z,1.67
2024-02-13T12:07:57.074Z,1.37
2024-02-13T12:10:28.967Z,1.40
2024-02-13T12:13:00.945Z,1.53
2024-02-13T12:15:32.794Z,1.50
2024-02-13T12:18:04.855Z,1.20
2024-02-13T12:20:37.015Z,1.33
2024-02-13T12:23:08.876Z,1.33
2024-02-13T12:25:40.750Z,1.27
2024-02-13T12:28:12.613Z,1.37
2024-02-13T12:30:45.444Z,1.10
2024-02-13T12:33:17.369Z,1.20
2024-02-13T12:35:49.419Z,1.60
2024-02-13T12:38:21.351Z,1.23
2024-02-13T12:40:53.237Z,1.37
2024-02-13T12:43:25.092Z,1.57
2024-02-13T12:45:57.192Z,1.40
2024-02-13T12:48:35.288Z,1.17
2024-02-13T12:51:02.544Z,1.13
2024-02-13T12:53:34.537Z,1.20
2024-02-13T12:56:06.657Z,1.20
2024-02-13T12:58:38.982Z,1.20
2024-02-13T13:01:11.458Z,1.27
2024-02-13T13:03:43.618Z,1.40
2024-02-13T13:06:15.714Z,1.30
2024-02-13T13:08:47.663Z,1.60
2024-02-13T13:11:21.106Z,1.70
2024-02-13T13:13:53.137Z,1.07
2024-02-13T13:16:25.035Z,1.27
2024-02-13T13:18:57.121Z,0.90
2024-02-13T13:21:29.084Z,1.33
2024-02-13T13:24:01.430Z,1.77
2024-02-13T13:26:33.852Z,2.07
2024-02-13T13:29:05.970Z,0.80
2024-02-13T13:31:37.812Z,1.00
2024-02-13T13:34:10.007Z,1.10
2024-02-13T13:36:42.170Z,0.90
2024-02-13T13:39:14.068Z,2.17
2024-02-13T13:41:46.010Z,0.90
2024-02-13T13:44:18.128Z,0.97
2024-02-13T13:46:50.965Z,1.20
2024-02-13T13:49:23.630Z,1.00
2024-02-13T13:51:55.544Z,1.00
2024-02-13T13:54:27.410Z,1.00
2024-02-13T13:56:59.533Z,1.00
2024-02-13T13:59:31.510Z,1.23
2024-02-13T14:02:03.451Z,0.77
2024-02-13T14:04:35.310Z,1.20
2024-02-13T14:07:07.169Z,0.90
2024-02-13T14:09:39.087Z,0.83
2024-02-13T14:12:10.917Z,0.90
2024-02-13T14:14:42.807Z,1.13
2024-02-13T14:17:14.706Z,0.83
2024-02-13T14:19:46.637Z,0.47
2024-02-13T14:22:18.577Z,0.77
2024-02-13T14:24:50.601Z,0.60
2024-02-13T14:27:22.499Z,0.83
2024-02-13T14:29:54.670Z,0.57
2024-02-13T14:32:26.698Z,0.63
2024-02-13T14:34:58.732Z,0.90
2024-02-13T14:37:30.676Z,0.80
2024-02-13T14:40:02.593Z,0.73
2024-02-13T14:42:34.460Z,0.83
2024-02-13T14:45:06.337Z,0.50
2024-02-13T14:47:38.305Z,0.50
2024-02-13T14:50:10.269Z,0.73
2024-02-13T14:52:42.316Z,0.67
2024-02-13T14:55:14.205Z,0.63
2024-02-13T14:57:55.845Z,0.93
2024-02-13T15:00:19.882Z,1.07
2024-02-13T15:02:51.821Z,1.10
2024-02-13T15:05:23.747Z,0.87
2024-02-13T15:07:55.671Z,0.73
2024-02-13T15:10:27.567Z,1.10
2024-02-13T15:13:01.468Z,1.07
2024-02-13T15:15:33.065Z,0.97
2024-02-13T15:18:05.324Z,0.97
2024-02-13T15:20:37.339Z,1.00
2024-02-13T15:23:09.303Z,0.90
2024-02-13T15:25:41.240Z,0.70
2024-02-13T15:28:13.399Z,0.90
2024-02-13T15:30:45.446Z,1.27
2024-02-13T15:33:17.457Z,0.83
2024-02-13T15:35:49.460Z,0.60
2024-02-13T15:38:21.518Z,0.70
2024-02-13T15:40:53.375Z,0.80
2024-02-13T15:43:25.333Z,0.90
2024-02-13T15:45:57.325Z,1.00
2024-02-13T15:48:29.332Z,0.90
2024-02-13T15:51:01.393Z,0.87
2024-02-13T15:53:33.382Z,0.60
2024-02-13T15:56:05.220Z,1.47
2024-02-13T15:58:37.164Z,0.90
2024-02-13T16:01:09.193Z,1.30
2024-02-13T16:03:41.144Z,1.10
2024-02-13T16:06:13.076Z,1.03
2024-02-13T16:08:45.166Z,1.00
2024-02-13T16:11:17.245Z,1.13
2024-02-13T16:13:49.341Z,0.97
2024-02-13T16:16:21.201Z,0.80
2024-02-13T16:18:53.364Z,0.93
2024-02-13T16:21:25.403Z,0.67
2024-02-13T16:23:57.351Z,0.90
2024-02-13T16:26:29.416Z,0.80
2024-02-13T16:29:01.377Z,0.50
2024-02-13T16:31:33.514Z,0.67
2024-02-13T16:34:05.512Z,0.50
2024-02-13T16:36:37.561Z,0.37
2024-02-13T16:39:09.476Z,0.40
2024-02-13T16:41:41.489Z,0.60
2024-02-13T16:44:13.859Z,0.40
2024-02-13T16:46:45.711Z,0.70
2024-02-13T16:49:17.893Z,0.83
2024-02-13T16:51:50.172Z,0.60
2024-02-13T16:54:22.028Z,0.47
2024-02-13T16:56:54.033Z,0.83
2024-02-13T16:59:26.031Z,0.40
2024-02-13T17:01:58.207Z,0.60
2024-02-13T17:04:30.056Z,0.50
2024-02-13T17:07:02.058Z,0.60
2024-02-13T17:09:34.179Z,0.60
2024-02-13T17:12:06.364Z,0.30
2024-02-13T17:14:38.257Z,0.27
2024-02-13T17:17:10.138Z,0.60
2024-02-13T17:19:42.076Z,0.80
2024-02-13T17:22:14.007Z,0.40
2024-02-13T17:24:45.900Z,0.40
2024-02-13T17:27:17.768Z,0.50
2024-02-13T17:29:49.652Z,0.90
2024-02-13T17:32:21.992Z,0.90
2024-02-13T17:34:53.909Z,1.20
2024-02-13T17:37:25.976Z,1.53
2024-02-13T17:39:57.835Z,1.30
2024-02-13T17:42:29.789Z,1.23
2024-02-13T17:45:01.915Z,1.10
2024-02-13T17:47:34.301Z,1.07
2024-02-13T17:50:06.511Z,1.80
2024-02-13T17:52:38.582Z,1.47
2024-02-13T17:55:10.970Z,2.07
2024-02-13T17:57:43.080Z,1.10
2024-02-13T18:00:14.973Z,1.20
2024-02-13T18:02:46.412Z,1.30
2024-02-13T18:05:18.368Z,1.00
2024-02-13T18:07:50.427Z,1.47
2024-02-13T18:10:22.324Z,1.90
2024-02-13T18:12:54.201Z,1.70
2024-02-13T18:15:26.085Z,1.73
2024-02-13T18:17:58.098Z,1.37
2024-02-13T18:20:30.305Z,1.73
2024-02-13T18:23:02.722Z,1.50
2024-02-13T18:25:34.588Z,1.70
2024-02-13T18:28:06.515Z,2.30
2024-02-13T18:30:38.370Z,1.63
2024-02-13T18:33:10.491Z,1.23
2024-02-13T18:35:42.619Z,1.80
2024-02-13T18:38:14.526Z,1.90
2024-02-13T18:40:46.407Z,1.53
2024-02-13T18:43:18.350Z,1.80
2024-02-13T18:45:50.281Z,1.83
2024-02-13T18:48:22.364Z,2.40
2024-02-13T18:50:54.446Z,2.03
2024-02-13T18:53:26.681Z,2.00
2024-02-13T18:55:58.644Z,1.67
2024-02-13T18:58:30.671Z,2.07
2024-02-13T19:01:02.659Z,2.03
2024-02-13T19:03:34.780Z,1.70
2024-02-13T19:06:07.008Z,2.57
2024-02-13T19:08:39.077Z,1.80
2024-02-13T19:11:11.167Z,1.80
2024-02-13T19:13:43.076Z,2.60
2024-02-13T19:16:15.000Z,2.33
2024-02-13T19:18:47.050Z,2.50
2024-02-13T19:21:19.136Z,2.17
2024-02-13T19:23:51.060Z,2.40
2024-02-13T19:26:23.154Z,1.97
2024-02-13T19:28:56.779Z,2.53
2024-02-13T19:31:29.153Z,2.43
2024-02-13T19:34:01.435Z,2.20
2024-02-13T19:36:33.470Z,2.47
2024-02-13T19:39:05.485Z,2.63
2024-02-13T19:41:37.755Z,2.63
2024-02-13T19:44:09.830Z,2.40
2024-02-13T19:46:41.657Z,2.60
2024-02-13T19:49:13.929Z,2.37
2024-02-13T19:51:45.864Z,1.90
2024-02-13T19:54:18.121Z,2.40
2024-02-13T19:56:50.425Z,2.10
2024-02-13T19:59:22.710Z,2.00
2024-02-13T20:01:54.766Z,1.93
2024-02-13T20:04:26.663Z,2.93
2024-02-13T20:06:58.676Z,1.90
2024-02-13T20:09:30.660Z,1.90
2024-02-13T20:12:02.822Z,1.87
2024-02-13T20:14:34.862Z,1.93
2024-02-13T20:17:06.807Z,2.27
2024-02-13T20:19:39.036Z,1.77
2024-02-13T20:22:11.088Z,2.43
2024-02-13T20:24:42.938Z,1.57
2024-02-13T20:27:14.813Z,1.70
2024-02-13T20:29:46.702Z,1.97
2024-02-13T20:32:18.501Z,1.90
2024-02-13T20:34:50.857Z,2.17
2024-02-13T20:37:22.761Z,2.30
2024-02-13T20:39:54.626Z,1.70
2024-02-13T20:42:26.499Z,2.00
2024-02-13T20:45:07.133Z,2.57
2024-02-13T20:47:32.370Z,1.80
2024-02-13T20:50:04.432Z,2.10
2024-02-13T20:52:36.772Z,1.93
2024-02-13T20:55:08.615Z,2.20
2024-02-13T20:57:40.654Z,1.80
2024-02-13T21:00:12.548Z,1.70
2024-02-13T21:02:44.744Z,1.37
2024-02-13T21:05:16.722Z,1.50
2024-02-13T21:07:48.591Z,1.80
2024-02-13T21:10:20.467Z,1.63
2024-02-13T21:12:52.358Z,1.70
2024-02-13T21:15:24.199Z,2.03
2024-02-13T21:17:56.154Z,2.00
2024-02-13T21:20:28.227Z,2.00
2024-02-13T21:23:00.228Z,1.80
2024-02-13T21:25:32.049Z,1.50
2024-02-13T21:28:03.981Z,1.33
2024-02-13T21:30:36.007Z,1.73
2024-02-13T21:33:07.924Z,1.60
2024-02-13T21:35:40.058Z,1.67
2024-02-13T21:38:14.340Z,1.77
2024-02-13T21:40:45.299Z,1.47
2024-02-13T21:43:17.177Z,1.63
2024-02-13T21:45:49.046Z,1.53
2024-02-13T21:48:21.022Z,1.80
2024-02-13T21:50:53.115Z,1.80
2024-02-13T21:53:24.940Z,1.93
2024-02-13T21:55:56.818Z,1.67
2024-02-13T21:58:29.002Z,1.97
2024-02-13T22:01:02.385Z,2.23
2024-02-13T22:03:34.422Z,1.57
2024-02-13T22:06:06.453Z,1.90
2024-02-13T22:08:38.539Z,1.90
2024-02-13T22:11:10.477Z,1.73
2024-02-13T22:13:42.338Z,2.43
2024-02-13T22:16:14.161Z,2.20
2024-02-13T22:18:46.241Z,1.97
2024-02-13T22:21:18.329Z,1.83
2024-02-13T22:23:50.337Z,1.93
2024-02-13T22:26:22.302Z,1.77
2024-02-13T22:28:54.632Z,2.37
2024-02-13T22:31:27.739Z,2.00
2024-02-13T22:33:59.758Z,1.90
2024-02-13T22:36:31.784Z,2.10
2024-02-13T22:39:04.162Z,1.83
2024-02-13T22:41:36.217Z,2.40
2024-02-13T22:44:08.054Z,2.47
2024-02-13T22:46:39.978Z,2.23
2024-02-13T22:49:12.252Z,2.40
2024-02-13T22:51:45.287Z,2.23
2024-02-13T22:54:17.433Z,2.17
2024-02-13T22:56:49.337Z,2.17
2024-02-13T22:59:21.154Z,2.20
2024-02-13T23:01:53.012Z,2.27
2024-02-13T23:04:24.905Z,2.27
2024-02-13T23:06:56.961Z,2.10
2024-02-13T23:09:29.004Z,2.83
2024-02-13T23:12:01.092Z,1.80
2024-02-13T23:14:37.829Z,2.30
2024-02-13T23:17:06.641Z,2.13
2024-02-13T23:19:38.463Z,2.33
2024-02-13T23:22:10.283Z,3.10
2024-02-13T23:24:42.398Z,2.70
2024-02-13T23:27:14.433Z,2.70
2024-02-13T23:29:46.332Z,3.70
2024-02-13T23:32:18.204Z,3.17
2024-02-13T23:34:50.528Z,3.07
2024-02-13T23:37:22.518Z,2.60
2024-02-13T23:39:54.382Z,3.20
2024-02-13T23:42:26.309Z,3.07
2024-02-13T23:44:58.317Z,3.30
2024-02-13T23:47:30.655Z,3.00
2024-02-13T23:50:02.642Z,3.33
2024-02-13T23:52:34.474Z,2.93
2024-02-13T23:55:06.543Z,3.20
2024-02-13T23:57:38.709Z,3.37
